Time;durP1;ratioP1;P1;durP2;ratioP2;P2;SDS_P1;SDS_P2;PMS_P1;PMS_P2;Temp;Humidity;BMP_temperature;BMP_pressure;BME280_temperature;BME280_humidity;BME280_pressure;Samples;Min_cycle;Max_cycle;Signal;HPM_P1;HPM_P2
2023/09/08 00:01:58;;;;;;;;;;;26.80;61.90;;;;;;5034782;28;42985;-75
2023/09/08 00:04:23;;;;;;;;;;;26.80;61.60;;;;;;5042686;28;42973;-75
2023/09/08 00:06:49;;;;;;;;;;;26.90;61.60;;;;;;5039017;28;43349;-74
2023/09/08 00:09:14;;;;;;;;;;;26.80;61.60;;;;;;5042104;28;43004;-76
2023/09/08 00:11:40;;;;;;;;;;;26.80;61.70;;;;;;5038863;28;42868;-74
2023/09/08 00:14:05;;;;;;;;;;;26.90;61.60;;;;;;5042283;28;43141;-75
2023/09/08 00:16:31;;;;;;;;;;;26.90;61.80;;;;;;5038233;28;43342;-74
2023/09/08 00:18:58;;;;;;;;;;;27.00;61.80;;;;;;5033619;28;43171;-75
2023/09/08 00:21:27;;;;;;;;;;;26.80;61.60;;;;;;5042735;28;42951;-74
2023/09/08 00:23:53;;;;;;;;;;;26.90;60.30;;;;;;5045239;28;42952;-75
2023/09/08 00:26:18;;;;;;;;;;;26.90;61.70;;;;;;5030991;28;43403;-75
2023/09/08 00:28:44;;;;;;;;;;;26.80;62.30;;;;;;5045448;28;43238;-74
2023/09/08 00:31:09;;;;;;;;;;;27.00;61.90;;;;;;5026282;28;43033;-74
2023/09/08 00:33:35;;;;;;;;;;;27.00;62.00;;;;;;5025276;28;42966;-75
2023/09/08 00:36:00;;;;;;;;;;;26.90;62.00;;;;;;5023986;28;43373;-75
2023/09/08 00:38:26;;;;;;;;;;;27.10;62.30;;;;;;5032500;28;42928;-75
2023/09/08 00:40:51;;;;;;;;;;;26.90;62.00;;;;;;5029538;28;43947;-74
2023/09/08 00:43:17;;;;;;;;;;;26.90;62.10;;;;;;5032676;28;42976;-73
2023/09/08 00:45:43;;;;;;;;;;;26.90;62.20;;;;;;5030371;28;43031;-74
2023/09/08 00:48:09;;;;;;;;;;;26.90;62.10;;;;;;5031847;28;43062;-75
2023/09/08 00:50:36;;;;;;;;;;;26.80;62.00;;;;;;5030243;28;43572;-75
2023/09/08 00:53:02;;;;;;;;;;;26.80;62.00;;;;;;5032107;28;43707;-74
2023/09/08 00:55:29;;;;;;;;;;;26.90;62.10;;;;;;5029488;28;43038;-74
2023/09/08 00:57:55;;;;;;;;;;;26.80;61.60;;;;;;5033165;28;42884;-75
2023/09/08 01:00:20;;;;;;;;;;;26.90;62.20;;;;;;5028922;28;43480;-73
2023/09/08 01:02:46;;;;;;;;;;;26.80;62.20;;;;;;5032044;28;43374;-74
2023/09/08 01:05:12;;;;;;;;;;;26.90;62.40;;;;;;5028875;28;43438;-74
2023/09/08 01:07:38;;;;;;;;;;;26.90;62.30;;;;;;5020974;28;43992;-75
2023/09/08 01:10:06;;;;;;;;;;;26.80;62.20;;;;;;5028549;28;43018;-74
2023/09/08 01:12:31;;;;;;;;;;;26.90;61.60;;;;;;5030454;28;42986;-74
2023/09/08 01:14:57;;;;;;;;;;;27.00;62.50;;;;;;5024451;28;42985;-74
2023/09/08 01:17:22;;;;;;;;;;;27.00;62.80;;;;;;5024649;28;43041;-74
2023/09/08 01:19:50;;;;;;;;;;;26.80;62.20;;;;;;5029534;28;43172;-74
2023/09/08 01:22:23;;;;;;;;;;;27.10;62.50;;;;;;5044002;28;42965;-75
2023/09/08 01:25:07;;;;;;;;;;;26.90;62.40;;;;;;5042762;28;43005;-77
2023/09/08 01:27:34;;;;;;;;;;;27.10;60.30;;;;;;5042464;28;42928;-74
2023/09/08 01:30:01;;;;;;;;;;;26.70;62.30;;;;;;5042993;28;42920;-74
2023/09/08 01:32:28;;;;;;;;;;;26.90;62.60;;;;;;5031557;28;42976;-77
2023/09/08 01:34:54;;;;;;;;;;;27.00;62.60;;;;;;5029356;28;43776;-74
2023/09/08 01:37:22;;;;;;;;;;;28.50;63.90;;;;;;5037676;28;42940;-74
2023/09/08 01:39:47;;;;;;;;;;;26.90;62.70;;;;;;5041239;28;42961;-74
2023/09/08 01:42:13;;;;;;;;;;;26.80;62.50;;;;;;5037282;28;43024;-74
2023/09/08 01:44:38;;;;;;;;;;;26.90;62.60;;;;;;5040378;28;42968;-74
2023/09/08 01:47:04;;;;;;;;;;;26.70;62.70;;;;;;5037889;28;43120;-74
2023/09/08 01:49:29;;;;;;;;;;;26.60;62.70;;;;;;5040768;28;43736;-75
2023/09/08 01:51:56;;;;;;;;;;;26.90;62.20;;;;;;5037509;28;43299;-74
2023/09/08 01:54:21;;;;;;;;;;;26.90;62.80;;;;;;5041035;28;42778;-74
2023/09/08 01:56:47;;;;;;;;;;;26.90;63.10;;;;;;5037892;28;42874;-74
2023/09/08 01:59:12;;;;;;;;;;;26.90;62.40;;;;;;5040862;28;42930;-74
2023/09/08 02:01:38;;;;;;;;;;;26.80;62.60;;;;;;5037379;28;42896;-74
2023/09/08 02:04:04;;;;;;;;;;;27.00;62.80;;;;;;5040303;28;42932;-74
2023/09/08 02:06:29;;;;;;;;;;;26.80;62.10;;;;;;5030539;28;43082;-74
2023/09/08 02:08:55;;;;;;;;;;;26.70;62.80;;;;;;5023818;28;45148;-75
2023/09/08 02:11:20;;;;;;;;;;;27.00;62.80;;;;;;5024288;28;42892;-75
2023/09/08 02:13:46;;;;;;;;;;;26.90;62.00;;;;;;5036548;28;42941;-74
2023/09/08 02:16:14;;;;;;;;;;;26.80;62.30;;;;;;5032449;28;43006;-75
2023/09/08 02:18:43;;;;;;;;;;;27.00;62.50;;;;;;5029476;28;43662;-74
2023/09/08 02:21:09;;;;;;;;;;;26.90;62.70;;;;;;5033870;28;42991;-77
2023/09/08 02:23:35;;;;;;;;;;;26.90;62.70;;;;;;5041124;28;43049;-74
2023/09/08 02:26:00;;;;;;;;;;;26.90;62.40;;;;;;5036082;28;42939;-74
2023/09/08 02:28:26;;;;;;;;;;;26.90;62.50;;;;;;5045947;28;43121;-74
2023/09/08 02:30:51;;;;;;;;;;;26.90;62.50;;;;;;5046614;28;43065;-74
2023/09/08 02:33:17;;;;;;;;;;;26.80;62.60;;;;;;5043138;28;44255;-74
2023/09/08 02:35:43;;;;;;;;;;;26.80;62.50;;;;;;5034940;28;42998;-73
2023/09/08 02:38:08;;;;;;;;;;;26.90;62.50;;;;;;5029832;28;43187;-74
2023/09/08 02:40:34;;;;;;;;;;;26.80;62.40;;;;;;5028044;28;42977;-75
2023/09/08 02:43:00;;;;;;;;;;;26.90;62.40;;;;;;5026811;28;42952;-74
2023/09/08 02:45:25;;;;;;;;;;;26.80;62.30;;;;;;5025249;28;42989;-75
2023/09/08 02:47:51;;;;;;;;;;;26.70;62.40;;;;;;5027149;28;42929;-74
2023/09/08 02:50:16;;;;;;;;;;;26.80;62.40;;;;;;5027340;28;43559;-74
2023/09/08 02:52:42;;;;;;;;;;;26.80;62.00;;;;;;5027363;28;42923;-74
2023/09/08 02:55:08;;;;;;;;;;;26.80;62.20;;;;;;5027577;28;43143;-73
2023/09/08 02:57:33;;;;;;;;;;;26.80;62.30;;;;;;5025649;28;44291;-74
2023/09/08 02:59:59;;;;;;;;;;;26.80;62.30;;;;;;5026016;28;42962;-75
2023/09/08 03:02:25;;;;;;;;;;;26.80;62.20;;;;;;5015519;28;43277;-75
2023/09/08 03:04:51;;;;;;;;;;;26.70;62.10;;;;;;5024425;28;43010;-74
2023/09/08 03:07:16;;;;;;;;;;;26.80;62.20;;;;;;5025319;28;44173;-75
2023/09/08 03:09:42;;;;;;;;;;;26.90;62.20;;;;;;5024054;28;42929;-78
2023/09/08 03:12:07;;;;;;;;;;;26.80;62.10;;;;;;5029106;28;43096;-77
2023/09/08 03:14:33;;;;;;;;;;;26.70;61.80;;;;;;5033139;28;42916;-75
2023/09/08 03:16:58;;;;;;;;;;;26.80;62.00;;;;;;5024952;28;43494;-76
2023/09/08 03:19:24;;;;;;;;;;;26.80;62.00;;;;;;5038146;28;43087;-75
2023/09/08 03:21:49;;;;;;;;;;;26.70;62.00;;;;;;5039162;28;43538;-75
2023/09/08 03:24:15;;;;;;;;;;;26.70;61.80;;;;;;5029167;28;43079;-74
2023/09/08 03:26:40;;;;;;;;;;;26.80;61.50;;;;;;5011171;28;43147;-77
2023/09/08 03:29:06;;;;;;;;;;;26.90;62.00;;;;;;5019651;28;43140;-75
2023/09/08 03:31:31;;;;;;;;;;;26.70;61.60;;;;;;5025127;28;44013;-74
2023/09/08 03:33:57;;;;;;;;;;;26.80;61.70;;;;;;5021770;28;42989;-75
2023/09/08 03:36:23;;;;;;;;;;;26.70;62.00;;;;;;5025036;28;43651;-75
2023/09/08 03:38:48;;;;;;;;;;;26.60;61.80;;;;;;5023284;28;42992;-75
2023/09/08 03:41:14;;;;;;;;;;;27.00;62.40;;;;;;5025869;28;43008;-74
2023/09/08 03:43:40;;;;;;;;;;;26.80;61.80;;;;;;5023150;28;43101;-74
2023/09/08 03:46:05;;;;;;;;;;;26.60;61.80;;;;;;5027061;28;43004;-78
2023/09/08 03:48:31;;;;;;;;;;;26.90;61.90;;;;;;5028635;28;43124;-75
2023/09/08 03:50:56;;;;;;;;;;;26.60;61.80;;;;;;5025930;28;43269;-75
2023/09/08 03:53:22;;;;;;;;;;;26.70;61.90;;;;;;5027777;28;43064;-76
2023/09/08 03:55:47;;;;;;;;;;;26.70;61.40;;;;;;5023246;28;44364;-75
2023/09/08 03:58:13;;;;;;;;;;;26.80;62.00;;;;;;5032011;28;42939;-74
2023/09/08 04:00:38;;;;;;;;;;;26.60;61.40;;;;;;5025303;28;43979;-75
2023/09/08 04:03:04;;;;;;;;;;;26.70;61.50;;;;;;5045959;28;43475;-76
2023/09/08 04:05:29;;;;;;;;;;;26.70;62.10;;;;;;5025348;28;43318;-74
2023/09/08 04:07:55;;;;;;;;;;;26.60;61.80;;;;;;5039541;28;43090;-75
2023/09/08 04:10:20;;;;;;;;;;;26.70;62.30;;;;;;5025803;28;42967;-79
2023/09/08 04:12:46;;;;;;;;;;;26.70;62.10;;;;;;5029786;28;42932;-78
2023/09/08 04:15:12;;;;;;;;;;;27.10;62.30;;;;;;5026468;28;44627;-77
2023/09/08 04:17:37;;;;;;;;;;;26.90;62.10;;;;;;5034838;28;42968;-75
2023/09/08 04:20:05;;;;;;;;;;;26.60;61.80;;;;;;5031031;28;42959;-75
2023/09/08 04:22:30;;;;;;;;;;;26.80;61.50;;;;;;5026484;28;43321;-75
2023/09/08 04:24:57;;;;;;;;;;;26.60;61.70;;;;;;5032974;28;43594;-75
2023/09/08 04:27:22;;;;;;;;;;;26.70;61.60;;;;;;5028508;28;43125;-75
2023/09/08 04:29:48;;;;;;;;;;;26.60;61.50;;;;;;5035291;28;43698;-77
2023/09/08 04:32:14;;;;;;;;;;;27.20;62.10;;;;;;5033605;28;43172;-75
2023/09/08 04:34:40;;;;;;;;;;;26.70;61.80;;;;;;5025028;28;44148;-79
2023/09/08 04:37:06;;;;;;;;;;;26.70;61.80;;;;;;5031105;28;42921;-76
2023/09/08 04:39:32;;;;;;;;;;;26.40;61.00;;;;;;5038711;28;43342;-75
2023/09/08 04:41:58;;;;;;;;;;;26.90;62.10;;;;;;5033141;28;43145;-75
2023/09/08 04:44:23;;;;;;;;;;;26.80;62.10;;;;;;5027950;28;43966;-79
2023/09/08 04:46:49;;;;;;;;;;;28.30;63.30;;;;;;5031212;28;43058;-76
2023/09/08 04:49:14;;;;;;;;;;;26.80;61.90;;;;;;5034148;28;43512;-75
2023/09/08 04:51:40;;;;;;;;;;;26.60;61.80;;;;;;5023467;28;43094;-77
2023/09/08 04:54:05;;;;;;;;;;;26.70;61.60;;;;;;5015834;28;43048;-76
2023/09/08 04:56:31;;;;;;;;;;;26.70;61.60;;;;;;5018752;28;43116;-74
2023/09/08 04:58:57;;;;;;;;;;;26.70;61.70;;;;;;5028331;28;43203;-76
2023/09/08 05:01:23;;;;;;;;;;;26.60;61.10;;;;;;5025853;28;42997;-75
2023/09/08 05:03:49;;;;;;;;;;;26.70;61.20;;;;;;5026934;28;44055;-75
2023/09/08 05:06:14;;;;;;;;;;;26.60;61.80;;;;;;5025754;28;43187;-75
2023/09/08 05:08:39;;;;;;;;;;;26.80;62.50;;;;;;5027017;28;43579;-74
2023/09/08 05:11:05;;;;;;;;;;;26.60;61.70;;;;;;5029995;28;43064;-75
2023/09/08 05:13:30;;;;;;;;;;;26.70;61.90;;;;;;5028181;28;43384;-76
2023/09/08 05:16:00;;;;;;;;;;;26.80;61.90;;;;;;5032634;28;43152;-77
2023/09/08 05:18:26;;;;;;;;;;;26.60;61.70;;;;;;5017663;28;43573;-76
2023/09/08 05:20:52;;;;;;;;;;;26.70;61.90;;;;;;5007599;28;42989;-75
2023/09/08 05:23:17;;;;;;;;;;;26.60;62.00;;;;;;5029485;28;43959;-76
2023/09/08 05:25:43;;;;;;;;;;;26.70;61.90;;;;;;5025959;28;43408;-77
2023/09/08 05:28:08;;;;;;;;;;;26.70;61.90;;;;;;5037314;28;42989;-77
2023/09/08 05:30:34;;;;;;;;;;;26.70;61.90;;;;;;5033640;28;43028;-76
2023/09/08 05:32:59;;;;;;;;;;;26.70;61.70;;;;;;5022076;28;43369;-77
2023/09/08 05:35:25;;;;;;;;;;;26.70;62.20;;;;;;5031456;28;42904;-76
2023/09/08 05:37:50;;;;;;;;;;;26.70;61.70;;;;;;5026328;28;43785;-76
2023/09/08 05:40:16;;;;;;;;;;;26.80;61.80;;;;;;5027075;28;42951;-78
2023/09/08 05:42:41;;;;;;;;;;;26.80;61.60;;;;;;5023120;28;43695;-76
2023/09/08 05:45:07;;;;;;;;;;;26.50;61.50;;;;;;5035448;28;42949;-75
2023/09/08 05:47:32;;;;;;;;;;;26.70;61.30;;;;;;5034869;28;43008;-77
2023/09/08 05:49:58;;;;;;;;;;;26.80;61.70;;;;;;5041830;28;43367;-76
2023/09/08 05:52:23;;;;;;;;;;;27.10;61.70;;;;;;5033951;28;43099;-76
2023/09/08 05:54:49;;;;;;;;;;;26.70;61.30;;;;;;5045920;28;42970;-77
2023/09/08 05:57:15;;;;;;;;;;;26.80;61.50;;;;;;5044677;28;42901;-76
2023/09/08 05:59:40;;;;;;;;;;;26.80;62.10;;;;;;5046811;28;43351;-76
2023/09/08 06:02:05;;;;;;;;;;;26.60;61.70;;;;;;5038760;28;43550;-77
2023/09/08 06:04:32;;;;;;;;;;;26.70;61.30;;;;;;5026460;28;42871;-75
2023/09/08 06:06:58;;;;;;;;;;;26.70;61.40;;;;;;5042252;28;43599;-76
2023/09/08 06:09:23;;;;;;;;;;;26.70;61.60;;;;;;5027666;28;43203;-77
2023/09/08 06:11:49;;;;;;;;;;;26.70;62.70;;;;;;5035237;28;43783;-76
2023/09/08 06:14:15;;;;;;;;;;;26.70;62.30;;;;;;5032168;28;43060;-77
2023/09/08 06:16:40;;;;;;;;;;;26.70;62.00;;;;;;5036142;28;43591;-77
2023/09/08 06:19:06;;;;;;;;;;;26.70;62.50;;;;;;5027484;28;43029;-78
2023/09/08 06:21:31;;;;;;;;;;;26.70;62.30;;;;;;5034490;28;43539;-75
2023/09/08 06:23:57;;;;;;;;;;;26.80;62.50;;;;;;5026393;28;42870;-77
2023/09/08 06:26:23;;;;;;;;;;;26.80;62.80;;;;;;5032092;28;42949;-76
2023/09/08 06:28:48;;;;;;;;;;;26.80;62.80;;;;;;5031579;28;43156;-75
2023/09/08 06:31:14;;;;;;;;;;;26.90;63.00;;;;;;5035968;28;43181;-75
2023/09/08 06:33:40;;;;;;;;;;;26.90;63.20;;;;;;5032428;28;43025;-76
2023/09/08 06:36:06;;;;;;;;;;;27.00;63.10;;;;;;5024636;28;43544;-76
2023/09/08 06:38:32;;;;;;;;;;;26.90;62.70;;;;;;5034013;28;42901;-77
2023/09/08 06:40:58;;;;;;;;;;;27.00;63.30;;;;;;5031570;28;43673;-77
2023/09/08 06:43:24;;;;;;;;;;;26.80;63.00;;;;;;5029103;28;43037;-76
2023/09/08 06:45:50;;;;;;;;;;;27.00;63.10;;;;;;5043510;28;43966;-77
2023/09/08 06:48:15;;;;;;;;;;;26.90;63.00;;;;;;5030431;28;42895;-77
2023/09/08 06:50:41;;;;;;;;;;;26.90;62.60;;;;;;5029010;28;43013;-76
2023/09/08 06:53:08;;;;;;;;;;;27.30;62.20;;;;;;5035123;28;59671;-76
2023/09/08 06:55:34;;;;;;;;;;;26.90;63.30;;;;;;5037073;28;44237;-75
2023/09/08 06:57:59;;;;;;;;;;;27.10;63.50;;;;;;5025906;28;42941;-76
2023/09/08 07:00:25;;;;;;;;;;;27.00;63.30;;;;;;5023858;28;43703;-77
2023/09/08 07:02:50;;;;;;;;;;;26.90;63.40;;;;;;5005563;28;43070;-77
2023/09/08 07:05:16;;;;;;;;;;;26.90;63.20;;;;;;5024485;28;43083;-76
2023/09/08 07:07:41;;;;;;;;;;;26.90;63.40;;;;;;5025146;28;43690;-77
2023/09/08 07:10:08;;;;;;;;;;;26.90;63.30;;;;;;5025714;28;43170;-77
2023/09/08 07:12:34;;;;;;;;;;;26.80;62.80;;;;;;5025404;28;43207;-76
2023/09/08 07:14:59;;;;;;;;;;;25.50;61.70;;;;;;5025002;28;43066;-76
2023/09/08 07:17:25;;;;;;;;;;;27.10;63.50;;;;;;5025753;28;43123;-77
2023/09/08 07:19:51;;;;;;;;;;;27.00;63.30;;;;;;5023711;28;43843;-78
2023/09/08 07:22:16;;;;;;;;;;;27.50;63.70;;;;;;5024346;28;43182;-76
2023/09/08 07:24:42;;;;;;;;;;;27.00;62.90;;;;;;5023544;28;43051;-76
2023/09/08 07:27:07;;;;;;;;;;;27.10;63.30;;;;;;5023657;28;43334;-76
2023/09/08 07:29:33;;;;;;;;;;;27.10;63.50;;;;;;5023489;28;44571;-76
2023/09/08 07:31:59;;;;;;;;;;;27.10;62.90;;;;;;5023695;28;43306;-75
2023/09/08 07:34:25;;;;;;;;;;;27.20;63.30;;;;;;5025351;28;43157;-75
2023/09/08 07:36:50;;;;;;;;;;;27.10;63.40;;;;;;5025397;28;43096;-76
2023/09/08 07:39:16;;;;;;;;;;;27.20;63.10;;;;;;5024703;28;43646;-77
2023/09/08 07:41:41;;;;;;;;;;;27.10;63.30;;;;;;5028221;28;43080;-77
2023/09/08 07:44:07;;;;;;;;;;;27.40;63.60;;;;;;5031107;28;43097;-82
2023/09/08 07:46:32;;;;;;;;;;;27.10;62.80;;;;;;5029431;28;43171;-81
2023/09/08 07:48:59;;;;;;;;;;;27.10;62.60;;;;;;5024409;28;42964;-81
2023/09/08 07:51:24;;;;;;;;;;;27.00;62.90;;;;;;5021076;28;43049;-81
2023/09/08 07:53:50;;;;;;;;;;;26.90;62.60;;;;;;5025496;28;43262;-83
2023/09/08 07:56:15;;;;;;;;;;;26.90;62.60;;;;;;5023974;28;43120;-82
2023/09/08 07:58:41;;;;;;;;;;;27.00;62.50;;;;;;5026022;28;43608;-82
2023/09/08 08:01:07;;;;;;;;;;;26.80;62.70;;;;;;5024544;28;42961;-82
2023/09/08 08:03:34;;;;;;;;;;;27.00;62.20;;;;;;5025413;28;43740;-81
2023/09/08 08:06:00;;;;;;;;;;;26.90;62.10;;;;;;5024454;28;42871;-82
2023/09/08 08:08:26;;;;;;;;;;;26.90;61.90;;;;;;5023345;28;44485;-82
2023/09/08 08:10:51;;;;;;;;;;;27.00;61.70;;;;;;5024161;28;42973;-81
2023/09/08 08:13:17;;;;;;;;;;;26.90;61.60;;;;;;5022957;28;42973;-81
2023/09/08 08:15:43;;;;;;;;;;;26.80;60.50;;;;;;5022460;28;43282;-82
2023/09/08 08:18:11;;;;;;;;;;;26.90;60.30;;;;;;5024222;28;43005;-82
2023/09/08 08:20:37;;;;;;;;;;;26.70;57.90;;;;;;5024893;28;43004;-81
2023/09/08 08:23:03;;;;;;;;;;;26.90;59.80;;;;;;5024859;28;43014;-81
2023/09/08 08:25:29;;;;;;;;;;;27.00;60.40;;;;;;5015222;28;43024;-82
2023/09/08 08:27:56;;;;;;;;;;;26.90;61.10;;;;;;5026087;28;43680;-82
2023/09/08 08:30:22;;;;;;;;;;;27.00;60.80;;;;;;5024130;28;43044;-82
2023/09/08 08:32:47;;;;;;;;;;;26.90;59.70;;;;;;5022982;28;43625;-80
2023/09/08 08:35:13;;;;;;;;;;;26.90;59.60;;;;;;5024779;28;43027;-85
2023/09/08 08:37:40;;;;;;;;;;;26.80;58.40;;;;;;5024066;28;43496;-79
2023/09/08 08:40:06;;;;;;;;;;;26.90;58.50;;;;;;5027915;28;42838;-78
2023/09/08 08:42:32;;;;;;;;;;;27.00;57.90;;;;;;5030078;28;43069;-84
2023/09/08 08:44:58;;;;;;;;;;;26.90;59.00;;;;;;5032065;28;43008;-79
2023/09/08 08:47:25;;;;;;;;;;;26.80;59.50;;;;;;5038136;28;43498;-78
2023/09/08 08:49:52;;;;;;;;;;;26.80;59.50;;;;;;5032718;28;43100;-78
2023/09/08 08:52:17;;;;;;;;;;;27.10;59.40;;;;;;5028742;28;44455;-79
2023/09/08 08:54:43;;;;;;;;;;;26.80;59.30;;;;;;5035126;28;43369;-79
2023/09/08 08:57:09;;;;;;;;;;;26.90;59.30;;;;;;5028751;28;43038;-85
2023/09/08 08:59:34;;;;;;;;;;;26.90;58.70;;;;;;5035930;28;43115;-89
2023/09/08 09:02:01;;;;;;;;;;;26.60;57.40;;;;;;5030253;28;45261;-90
2023/09/08 09:04:27;;;;;;;;;;;26.70;58.10;;;;;;5037897;28;43309;-79
2023/09/08 09:06:53;;;;;;;;;;;26.80;58.50;;;;;;5031851;28;43064;-89
2023/09/08 09:09:19;;;;;;;;;;;26.90;57.80;;;;;;5038042;28;42999;-86
2023/09/08 09:11:44;;;;;;;;;;;27.20;59.00;;;;;;5032084;28;43870;-83
2023/09/08 09:14:10;;;;;;;;;;;26.80;57.70;;;;;;5022867;28;42945;-85
2023/09/08 09:16:40;;;;;;;;;;;26.90;58.00;;;;;;5030057;28;42945;-80
2023/09/08 09:19:05;;;;;;;;;;;26.80;56.80;;;;;;5032901;28;43092;-80
2023/09/08 09:21:41;;;;;;;;;;;26.80;58.20;;;;;;5035135;28;43017;-81
2023/09/08 09:24:07;;;;;;;;;;;26.90;56.40;;;;;;5022239;28;42967;-84
2023/09/08 09:26:32;;;;;;;;;;;26.80;58.10;;;;;;5033294;28;42939;-81
2023/09/08 09:28:59;;;;;;;;;;;26.80;58.00;;;;;;5023212;28;42969;-84
2023/09/08 09:31:25;;;;;;;;;;;26.90;58.20;;;;;;5009089;28;43313;-80
2023/09/08 09:34:07;;;;;;;;;;;26.80;57.70;;;;;;5023193;28;43123;-82
2023/09/08 09:36:32;;;;;;;;;;;26.80;56.10;;;;;;5037772;28;43309;-84
2023/09/08 09:38:59;;;;;;;;;;;26.60;57.30;;;;;;5031880;28;43130;-80
2023/09/08 09:41:27;;;;;;;;;;;26.80;57.30;;;;;;5038676;28;43348;-86
2023/09/08 09:43:52;;;;;;;;;;;26.70;57.30;;;;;;5021191;28;42985;-81
2023/09/08 09:46:20;;;;;;;;;;;26.80;57.60;;;;;;5022871;28;44389;-83
2023/09/08 09:48:45;;;;;;;;;;;26.90;57.90;;;;;;5023017;28;42989;-81
2023/09/08 09:51:19;;;;;;;;;;;26.80;57.50;;;;;;5015685;28;42946;-85
2023/09/08 09:53:45;;;;;;;;;;;27.00;56.00;;;;;;5021665;28;43058;-80
2023/09/08 09:56:11;;;;;;;;;;;26.80;58.10;;;;;;5021736;28;42936;-87
2023/09/08 09:58:37;;;;;;;;;;;26.80;57.70;;;;;;5013878;28;42919;-81
2023/09/08 10:01:03;;;;;;;;;;;26.90;57.60;;;;;;5021634;28;44478;-80
2023/09/08 10:03:30;;;;;;;;;;;26.80;57.80;;;;;;5023367;28;43026;-83
2023/09/08 10:05:56;;;;;;;;;;;26.70;57.60;;;;;;5014979;28;42993;-87
2023/09/08 10:08:21;;;;;;;;;;;26.90;57.30;;;;;;5027566;28;43107;-81
2023/09/08 10:10:47;;;;;;;;;;;26.80;57.50;;;;;;5031159;28;43084;-81
2023/09/08 10:13:14;;;;;;;;;;;26.80;57.50;;;;;;5029810;28;42992;-83
2023/09/08 10:15:41;;;;;;;;;;;26.80;56.80;;;;;;5025886;28;43054;-80
2023/09/08 10:18:08;;;;;;;;;;;26.70;57.20;;;;;;5037630;28;42896;-80
2023/09/08 10:20:34;;;;;;;;;;;27.10;57.50;;;;;;5028938;28;43816;-81
2023/09/08 10:23:20;;;;;;;;;;;26.80;55.90;;;;;;5026232;28;43090;-83
2023/09/08 10:25:53;;;;;;;;;;;26.80;56.20;;;;;;5024749;28;43598;-80
2023/09/08 10:28:19;;;;;;;;;;;26.80;56.10;;;;;;5026583;28;43064;-80
2023/09/08 10:30:45;;;;;;;;;;;26.90;56.60;;;;;;5024749;28;43065;-81
2023/09/08 10:33:11;;;;;;;;;;;26.90;56.30;;;;;;5021567;28;43040;-84
2023/09/08 10:35:37;;;;;;;;;;;26.90;56.30;;;;;;5037604;28;43580;-84
2023/09/08 10:38:21;;;;;;;;;;;26.90;56.00;;;;;;5028087;28;42976;-81
2023/09/08 10:40:46;;;;;;;;;;;26.70;54.80;;;;;;5022575;28;42985;-80
2023/09/08 10:43:12;;;;;;;;;;;26.80;56.10;;;;;;5032519;28;42943;-82
2023/09/08 10:45:39;;;;;;;;;;;26.80;56.90;;;;;;5027490;28;43519;-86
2023/09/08 10:48:05;;;;;;;;;;;27.40;57.50;;;;;;5030023;28;43041;-83
2023/09/08 10:50:33;;;;;;;;;;;27.00;56.70;;;;;;5035471;28;42995;-86
2023/09/08 10:53:04;;;;;;;;;;;26.80;56.40;;;;;;5032307;28;44416;-88
2023/09/08 10:55:40;;;;;;;;;;;26.70;54.70;;;;;;5023066;28;43572;-80
2023/09/08 10:58:06;;;;;;;;;;;26.80;54.60;;;;;;5028159;28;42945;-86
2023/09/08 11:00:45;;;;;;;;;;;26.70;56.80;;;;;;5027611;28;42978;-85
2023/09/08 11:03:11;;;;;;;;;;;26.90;55.00;;;;;;5034147;28;43137;-85
2023/09/08 11:05:37;;;;;;;;;;;27.00;56.50;;;;;;5024021;28;43624;-82
2023/09/08 11:08:03;;;;;;;;;;;26.90;56.50;;;;;;5031936;28;43247;-84
2023/09/08 11:10:30;;;;;;;;;;;26.90;56.50;;;;;;5031256;28;43013;-82
2023/09/08 11:12:56;;;;;;;;;;;26.90;56.00;;;;;;5037196;28;43022;-82
2023/09/08 11:15:21;;;;;;;;;;;26.90;55.40;;;;;;5030233;28;43744;-81
2023/09/08 11:17:50;;;;;;;;;;;26.90;55.90;;;;;;5031838;28;42969;-84
2023/09/08 11:20:17;;;;;;;;;;;27.00;56.20;;;;;;5029334;28;42927;-85
2023/09/08 11:22:43;;;;;;;;;;;27.20;56.80;;;;;;5033332;28;42977;-81
2023/09/08 11:25:12;;;;;;;;;;;27.10;56.80;;;;;;5030673;28;43724;-81
2023/09/08 11:27:39;;;;;;;;;;;27.10;56.60;;;;;;5034519;28;42897;-81
2023/09/08 11:30:06;;;;;;;;;;;26.90;56.00;;;;;;5030117;28;43900;-83
2023/09/08 11:32:32;;;;;;;;;;;26.90;55.30;;;;;;5032473;28;43040;-84
2023/09/08 11:35:01;;;;;;;;;;;27.00;55.80;;;;;;5029282;28;43072;-90
2023/09/08 11:37:27;;;;;;;;;;;27.10;55.60;;;;;;5034136;28;42840;-85
2023/09/08 11:39:53;;;;;;;;;;;26.90;55.40;;;;;;5027997;28;43562;-83
2023/09/08 11:42:21;;;;;;;;;;;27.00;55.80;;;;;;5025870;28;42953;-84
2023/09/08 11:44:46;;;;;;;;;;;27.10;55.50;;;;;;5031951;28;44344;-86
2023/09/08 11:47:12;;;;;;;;;;;27.00;55.70;;;;;;5030186;28;43016;-85
2023/09/08 11:49:39;;;;;;;;;;;27.20;55.50;;;;;;5039094;28;43059;-84
2023/09/08 11:52:05;;;;;;;;;;;27.00;55.30;;;;;;5024455;28;43222;-94
2023/09/08 11:54:31;;;;;;;;;;;27.00;55.80;;;;;;5036833;28;44811;-88
2023/09/08 11:57:01;;;;;;;;;;;27.10;55.70;;;;;;5033119;28;42998;-89
2023/09/08 11:59:34;;;;;;;;;;;27.00;56.10;;;;;;5035213;28;45519;-88
2023/09/08 12:02:00;;;;;;;;;;;27.00;54.30;;;;;;5034392;28;43074;-81
2023/09/08 12:04:26;;;;;;;;;;;27.00;56.10;;;;;;5036830;28;43792;-91
2023/09/08 12:06:52;;;;;;;;;;;27.00;56.00;;;;;;5032660;28;43418;-93
2023/09/08 12:09:18;;;;;;;;;;;26.90;56.10;;;;;;5028030;28;44766;-94
2023/09/08 12:11:44;;;;;;;;;;;27.10;56.40;;;;;;5027835;28;43009;-91
2023/09/08 12:14:12;;;;;;;;;;;27.00;56.00;;;;;;5039184;28;43591;-84
2023/09/08 12:16:38;;;;;;;;;;;26.90;56.80;;;;;;5026839;28;42938;-86
2023/09/08 12:19:04;;;;;;;;;;;27.00;56.20;;;;;;5024256;28;42975;-94
2023/09/08 12:21:31;;;;;;;;;;;27.00;56.10;;;;;;5028462;28;42892;-92
2023/09/08 12:23:57;;;;;;;;;;;27.10;56.30;;;;;;5033337;28;43866;-90
2023/09/08 12:26:26;;;;;;;;;;;27.00;56.40;;;;;;5035735;28;42962;-88
2023/09/08 12:28:52;;;;;;;;;;;27.00;54.80;;;;;;5039347;28;43074;-85
2023/09/08 12:31:18;;;;;;;;;;;27.10;56.50;;;;;;5030611;28;43159;-93
2023/09/08 12:33:44;;;;;;;;;;;27.10;56.40;;;;;;5028023;28;43204;-91
2023/09/08 12:36:10;;;;;;;;;;;27.10;56.50;;;;;;5032111;28;42802;-91
2023/09/08 12:38:36;;;;;;;;;;;27.00;57.10;;;;;;5035026;28;43016;-88
2023/09/08 12:41:01;;;;;;;;;;;27.10;57.10;;;;;;5035938;28;43153;-81
2023/09/08 12:43:27;;;;;;;;;;;27.10;57.00;;;;;;5035849;28;43481;-81
2023/09/08 12:45:53;;;;;;;;;;;27.10;56.10;;;;;;5036445;28;43108;-81
2023/09/08 12:48:19;;;;;;;;;;;27.10;56.10;;;;;;5038433;28;43478;-83
2023/09/08 12:50:44;;;;;;;;;;;27.00;56.10;;;;;;5036120;28;43004;-87
2023/09/08 12:53:10;;;;;;;;;;;27.10;56.70;;;;;;5036999;28;43707;-94
2023/09/08 12:55:35;;;;;;;;;;;27.10;56.50;;;;;;5034758;28;43027;-90
2023/09/08 12:58:01;;;;;;;;;;;27.20;57.00;;;;;;5034259;28;42910;-82
2023/09/08 13:00:27;;;;;;;;;;;27.10;57.10;;;;;;5027309;28;43216;-89
2023/09/08 13:02:53;;;;;;;;;;;27.20;56.40;;;;;;5029048;28;43022;-81
2023/09/08 13:05:18;;;;;;;;;;;27.20;57.10;;;;;;5023904;28;43124;-82
2023/09/08 13:07:44;;;;;;;;;;;27.10;56.90;;;;;;5037372;28;43521;-93
2023/09/08 13:10:09;;;;;;;;;;;27.10;57.30;;;;;;5035717;28;42855;-88
2023/09/08 13:12:35;;;;;;;;;;;27.10;56.60;;;;;;5038959;28;42960;-93
2023/09/08 13:15:00;;;;;;;;;;;27.10;56.40;;;;;;5038280;28;43130;-86
2023/09/08 13:17:26;;;;;;;;;;;27.10;56.60;;;;;;5031676;28;43492;-81
2023/09/08 13:19:52;;;;;;;;;;;27.50;57.20;;;;;;5027088;28;43177;-83
2023/09/08 13:22:18;;;;;;;;;;;27.20;56.70;;;;;;5031794;28;43475;-80
2023/09/08 13:24:44;;;;;;;;;;;27.00;56.40;;;;;;5031887;28;42995;-82
2023/09/08 13:27:09;;;;;;;;;;;27.10;57.00;;;;;;5021942;28;43683;-82
2023/09/08 13:29:35;;;;;;;;;;;27.10;56.60;;;;;;5033483;28;43151;-82
2023/09/08 13:32:01;;;;;;;;;;;27.40;57.00;;;;;;5025679;28;44507;-89
2023/09/08 13:34:26;;;;;;;;;;;27.20;56.30;;;;;;5025077;28;43088;-88
2023/09/08 13:36:52;;;;;;;;;;;27.30;56.60;;;;;;5032903;28;43309;-81
2023/09/08 13:39:18;;;;;;;;;;;27.30;56.60;;;;;;5034725;28;42995;-80
2023/09/08 13:41:49;;;;;;;;;;;27.30;57.10;;;;;;5024063;28;43802;-83
2023/09/08 13:44:16;;;;;;;;;;;27.40;54.90;;;;;;5020885;28;43005;-80
2023/09/08 13:46:41;;;;;;;;;;;27.40;57.40;;;;;;5021715;28;44395;-80
2023/09/08 13:49:07;;;;;;;;;;;27.30;57.20;;;;;;5033336;28;43010;-79
2023/09/08 13:51:33;;;;;;;;;;;27.20;56.90;;;;;;5026540;28;43654;-82
2023/09/08 13:53:58;;;;;;;;;;;27.30;56.70;;;;;;5025624;28;42986;-86
2023/09/08 13:56:24;;;;;;;;;;;27.20;56.00;;;;;;5030499;28;43583;-84
2023/09/08 13:58:50;;;;;;;;;;;27.30;56.10;;;;;;5031138;28;42897;-83
2023/09/08 14:01:15;;;;;;;;;;;27.20;56.80;;;;;;5023365;28;43733;-81
2023/09/08 14:03:41;;;;;;;;;;;27.20;56.60;;;;;;5035248;28;43041;-82
2023/09/08 14:06:06;;;;;;;;;;;27.20;56.40;;;;;;5030979;28;43275;-81
2023/09/08 14:08:31;;;;;;;;;;;27.30;56.80;;;;;;5025529;28;43976;-82
2023/09/08 14:10:57;;;;;;;;;;;27.40;56.50;;;;;;5020989;28;43084;-79